Time;durP1;ratioP1;P1;durP2;ratioP2;P2;SDS_P1;SDS_P2;PMS_P1;PMS_P2;Temp;Humidity;BMP_temperature;BMP_pressure;BME280_temperature;BME280_humidity;BME280_pressure;Samples;Min_cycle;Max_cycle;Signal;HPM_P1;HPM_P2
2023/08/04 00:00:37;;;;;;;2.75;0.60;;;20.30;99.90;;;;;;10095706;28;20178;-70
2023/08/04 00:05:28;;;;;;;0.88;0.40;;;20.20;99.90;;;;;;10096398;28;20495;-69
2023/08/04 00:10:18;;;;;;;1.30;0.65;;;20.10;99.90;;;;;;10098467;28;20313;-69
2023/08/04 00:15:09;;;;;;;2.42;0.60;;;20.20;99.90;;;;;;10103778;28;20090;-70
2023/08/04 00:20:00;;;;;;;1.33;1.00;;;20.20;99.90;;;;;;10092461;28;20107;-69
2023/08/04 00:24:50;;;;;;;0.55;0.40;;;20.20;99.90;;;;;;10103842;28;20439;-69
2023/08/04 00:29:41;;;;;;;0.50;0.40;;;20.10;99.90;;;;;;10109269;28;20083;-68
2023/08/04 00:34:31;;;;;;;0.32;0.30;;;20.10;99.90;;;;;;10106098;28;20032;-68
2023/08/04 00:39:22;;;;;;;0.50;0.50;;;20.20;99.90;;;;;;10110690;28;20390;-70
2023/08/04 00:44:13;;;;;;;0.70;0.50;;;20.20;99.90;;;;;;10113022;28;20052;-70
2023/08/04 00:49:05;;;;;;;0.70;0.35;;;20.00;99.90;;;;;;10109057;28;20462;-69
2023/08/04 00:53:56;;;;;;;1.83;0.80;;;20.10;99.90;;;;;;10102668;28;20029;-69
2023/08/04 00:58:47;;;;;;;0.85;0.80;;;20.10;99.90;;;;;;10103267;28;20394;-70
2023/08/04 01:03:39;;;;;;;1.33;0.60;;;20.10;99.90;;;;;;10102095;28;20423;-70
2023/08/04 01:08:34;;;;;;;0.73;0.47;;;20.10;99.90;;;;;;10101894;28;20017;-69
2023/08/04 01:13:29;;;;;;;1.55;0.50;;;20.00;99.90;;;;;;10102789;28;20455;-70
2023/08/04 01:18:22;;;;;;;1.17;0.40;;;20.00;99.90;;;;;;10095920;28;20029;-68
2023/08/04 01:23:13;;;;;;;0.75;0.50;;;20.00;99.90;;;;;;10099464;28;20053;-69
2023/08/04 01:28:15;;;;;;;0.95;0.50;;;20.00;99.90;;;;;;10097195;28;20029;-69
2023/08/04 01:33:06;;;;;;;4.00;0.65;;;19.90;99.90;;;;;;10093064;28;20039;-68
2023/08/04 01:37:56;;;;;;;2.22;0.77;;;20.00;99.90;;;;;;10081007;28;20090;-69
2023/08/04 01:42:47;;;;;;;0.95;0.40;;;20.00;99.90;;;;;;10097739;28;20049;-69
2023/08/04 01:47:39;;;;;;;0.30;0.30;;;20.00;99.90;;;;;;10094492;28;20028;-69
2023/08/04 01:52:29;;;;;;;0.73;0.40;;;20.00;99.90;;;;;;10096182;28;20037;-69
2023/08/04 01:57:20;;;;;;;1.73;0.68;;;19.90;99.90;;;;;;10105426;28;20391;-70
2023/08/04 02:02:10;;;;;;;1.08;0.60;;;19.80;99.90;;;;;;10100529;28;20126;-69
2023/08/04 02:07:01;;;;;;;0.82;0.60;;;19.80;99.90;;;;;;10100358;28;20033;-70
2023/08/04 02:11:52;;;;;;;7.07;0.90;;;19.70;99.90;;;;;;10101525;28;20033;-69
2023/08/04 02:16:42;;;;;;;0.80;0.40;;;19.80;99.90;;;;;;10093377;28;20267;-69
2023/08/04 02:21:33;;;;;;;1.17;0.70;;;19.70;99.90;;;;;;10099226;28;20155;-71
2023/08/04 02:26:24;;;;;;;3.10;0.80;;;19.70;99.90;;;;;;10094821;28;20028;-69
2023/08/04 02:31:15;;;;;;;0.82;0.60;;;19.60;99.90;;;;;;10098302;28;20041;-70
2023/08/04 02:36:05;;;;;;;1.88;1.67;;;19.60;99.90;;;;;;10099180;28;20025;-69
2023/08/04 02:41:02;;;;;;;2.60;0.50;;;19.60;99.90;;;;;;10112113;28;20510;-68
2023/08/04 02:45:53;;;;;;;1.98;0.68;;;19.50;99.90;;;;;;10098995;28;20025;-69
2023/08/04 02:50:46;;;;;;;0.68;0.50;;;19.50;99.90;;;;;;10096677;28;20442;-69
2023/08/04 02:55:37;;;;;;;0.82;0.50;;;19.50;99.90;;;;;;10099016;28;20120;-69
2023/08/04 03:00:27;;;;;;;0.52;0.32;;;19.40;99.90;;;;;;10096005;28;20140;-68
2023/08/04 03:05:18;;;;;;;1.40;0.50;;;19.40;99.90;;;;;;10090968;28;20037;-70
2023/08/04 03:10:09;;;;;;;1.50;0.63;;;19.40;99.90;;;;;;10073754;28;20032;-70
2023/08/04 03:14:59;;;;;;;0.70;0.70;;;19.40;99.90;;;;;;10096307;28;20104;-69
2023/08/04 03:19:50;;;;;;;1.25;0.70;;;19.50;99.90;;;;;;10098111;28;20025;-68
2023/08/04 03:24:43;;;;;;;2.08;0.70;;;19.50;99.90;;;;;;10092177;28;20045;-70
2023/08/04 03:29:34;;;;;;;0.47;0.38;;;19.50;99.90;;;;;;10094252;28;20025;-69
2023/08/04 03:34:25;;;;;;;2.20;1.10;;;19.40;99.90;;;;;;10095830;28;20025;-68
2023/08/04 03:39:15;;;;;;;1.45;0.80;;;19.30;99.90;;;;;;10097072;28;20232;-69
2023/08/04 03:44:06;;;;;;;1.15;0.63;;;19.30;99.90;;;;;;10095686;28;20564;-69
2023/08/04 03:48:56;;;;;;;0.85;0.45;;;19.30;99.90;;;;;;10096586;28;20196;-69
2023/08/04 03:53:47;;;;;;;2.25;0.73;;;19.30;99.90;;;;;;10101236;28;20031;-68
2023/08/04 03:58:38;;;;;;;1.50;0.93;;;19.30;99.90;;;;;;10096397;28;20021;-68
2023/08/04 04:03:28;;;;;;;1.88;0.73;;;19.30;99.90;;;;;;10095980;28;20098;-72
2023/08/04 04:08:19;;;;;;;3.65;0.90;;;19.20;99.90;;;;;;10096659;28;20394;-69
2023/08/04 04:13:09;;;;;;;2.95;0.50;;;19.20;99.90;;;;;;10096007;28;20268;-69
2023/08/04 04:18:00;;;;;;;2.08;0.80;;;19.00;99.90;;;;;;10089817;28;20033;-69
2023/08/04 04:22:52;;;;;;;1.25;0.50;;;19.20;99.90;;;;;;10095617;28;20137;-70
2023/08/04 04:27:43;;;;;;;1.73;0.80;;;19.10;99.90;;;;;;10096140;28;20098;-70
2023/08/04 04:32:34;;;;;;;2.78;0.70;;;19.10;99.90;;;;;;10097333;28;20578;-69
2023/08/04 04:37:24;;;;;;;1.33;0.70;;;19.00;99.90;;;;;;10096100;28;20063;-70
2023/08/04 04:42:16;;;;;;;0.70;0.70;;;19.10;99.90;;;;;;10107917;28;20387;-69
2023/08/04 04:47:09;;;;;;;0.80;0.52;;;19.10;99.90;;;;;;10095681;28;20086;-69
2023/08/04 04:51:59;;;;;;;1.02;0.52;;;19.20;99.90;;;;;;10095047;28;20025;-70
2023/08/04 04:56:50;;;;;;;1.02;0.63;;;19.10;99.90;;;;;;10110538;28;20407;-69
2023/08/04 05:01:41;;;;;;;0.95;0.60;;;19.10;99.90;;;;;;10098218;28;20041;-70
2023/08/04 05:06:31;;;;;;;1.30;0.90;;;19.20;99.90;;;;;;10086214;28;20032;-69
2023/08/04 05:11:22;;;;;;;1.38;0.60;;;19.30;99.90;;;;;;10099517;28;20037;-68
2023/08/04 05:16:12;;;;;;;1.02;0.57;;;19.30;99.90;;;;;;10094925;28;20041;-69
2023/08/04 05:21:03;;;;;;;1.67;0.77;;;19.40;99.90;;;;;;10096528;28;20135;-69
2023/08/04 05:25:54;;;;;;;2.45;1.27;;;19.30;99.90;;;;;;10106073;28;20056;-68
2023/08/04 05:30:44;;;;;;;1.80;1.00;;;19.20;99.90;;;;;;10101171;28;20031;-69
2023/08/04 05:35:37;;;;;;;1.27;0.70;;;19.20;99.90;;;;;;10101890;28;20412;-70
2023/08/04 05:40:28;;;;;;;1.38;0.82;;;19.20;99.90;;;;;;10115941;28;20029;-68
2023/08/04 05:45:18;;;;;;;1.70;0.77;;;19.30;99.90;;;;;;10101160;28;20033;-69
2023/08/04 05:50:09;;;;;;;1.40;0.82;;;19.30;99.90;;;;;;10105019;28;20025;-69
2023/08/04 05:55:00;;;;;;;2.15;0.70;;;19.30;99.90;;;;;;10105024;28;20195;-68
2023/08/04 05:59:51;;;;;;;1.50;0.85;;;19.20;99.90;;;;;;10100039;28;20819;-68
2023/08/04 06:04:41;;;;;;;2.00;0.77;;;19.20;99.90;;;;;;10101073;28;20458;-70
2023/08/04 06:09:32;;;;;;;4.07;0.80;;;19.30;99.90;;;;;;10099149;28;20568;-69
2023/08/04 06:14:22;;;;;;;1.65;0.57;;;19.40;99.90;;;;;;10099616;28;20487;-69
2023/08/04 06:19:13;;;;;;;3.17;0.80;;;19.40;99.90;;;;;;10093405;28;20462;-69
2023/08/04 06:24:07;;;;;;;1.33;1.20;;;19.40;99.90;;;;;;10098188;28;20041;-68
2023/08/04 06:28:57;;;;;;;2.53;0.90;;;19.40;99.90;;;;;;10091397;28;20052;-69
2023/08/04 06:33:48;;;;;;;2.78;1.10;;;19.50;99.90;;;;;;10096230;28;20036;-69
2023/08/04 06:38:39;;;;;;;2.67;0.98;;;19.50;99.90;;;;;;10094213;28;20256;-67
2023/08/04 06:43:29;;;;;;;1.77;1.20;;;19.60;99.90;;;;;;10095264;28;20434;-68
2023/08/04 06:54:08;;;;;;;3.60;0.70;;;19.40;99.90;;;;;;10090826;28;20079;-68
2023/08/04 06:58:58;;;;;;;2.60;1.00;;;19.50;99.90;;;;;;10111827;28;20530;-68
2023/08/04 07:03:49;;;;;;;0.82;0.70;;;19.50;99.90;;;;;;10099235;28;20045;-67
2023/08/04 07:08:43;;;;;;;1.85;1.08;;;19.70;99.90;;;;;;10094696;28;20030;-67
2023/08/04 07:13:33;;;;;;;2.15;0.80;;;19.80;99.90;;;;;;10094518;28;20024;-66
2023/08/04 07:18:24;;;;;;;1.83;0.82;;;19.90;99.90;;;;;;10090977;28;20610;-67
2023/08/04 07:23:15;;;;;;;2.22;1.00;;;19.90;99.90;;;;;;10094976;28;20053;-66
2023/08/04 07:28:06;;;;;;;1.42;0.70;;;19.90;99.90;;;;;;10097309;28;20029;-66
2023/08/04 07:32:56;;;;;;;0.90;0.50;;;19.90;99.90;;;;;;10102889;28;20082;-67
2023/08/04 07:37:50;;;;;;;1.70;0.82;;;19.80;99.90;;;;;;10109931;28;20029;-68
2023/08/04 07:42:41;;;;;;;2.45;0.88;;;19.90;99.90;;;;;;10096013;28;20442;-68
2023/08/04 07:47:32;;;;;;;5.07;1.02;;;20.00;99.90;;;;;;10094489;28;20025;-68
2023/08/04 07:52:23;;;;;;;2.38;0.75;;;20.00;99.90;;;;;;10096135;28;20033;-69
2023/08/04 07:57:16;;;;;;;0.95;0.60;;;20.00;99.90;;;;;;10097606;28;20168;-68
2023/08/04 08:02:07;;;;;;;2.78;0.85;;;20.10;99.90;;;;;;10085544;28;20381;-68
2023/08/04 08:06:57;;;;;;;1.50;0.68;;;20.10;99.90;;;;;;10075545;28;20029;-68
2023/08/04 08:11:48;;;;;;;0.93;0.70;;;20.10;99.90;;;;;;10093459;28;20032;-70
2023/08/04 08:16:40;;;;;;;6.57;2.45;;;20.10;99.90;;;;;;10090438;28;20076;-68
2023/08/04 08:21:31;;;;;;;1.35;0.95;;;20.10;99.90;;;;;;10094430;28;20045;-68
2023/08/04 08:26:21;;;;;;;3.63;0.52;;;20.20;99.90;;;;;;10097371;28;20398;-68
2023/08/04 08:31:12;;;;;;;2.72;0.63;;;20.30;99.90;;;;;;10101008;28;20036;-66
2023/08/04 08:36:04;;;;;;;1.17;0.63;;;20.40;99.90;;;;;;10103923;28;20017;-68
2023/08/04 08:40:55;;;;;;;2.63;0.85;;;20.40;99.90;;;;;;10103003;28;20391;-66
2023/08/04 08:45:47;;;;;;;1.65;0.95;;;20.40;99.90;;;;;;10103390;28;20021;-66
2023/08/04 08:50:38;;;;;;;3.22;0.65;;;20.40;99.90;;;;;;10102788;28;20028;-67
2023/08/04 08:55:30;;;;;;;0.77;0.55;;;20.60;99.90;;;;;;10103930;28;20036;-67
2023/08/04 09:00:22;;;;;;;1.83;1.00;;;20.60;99.90;;;;;;10102666;28;20029;-67
2023/08/04 09:05:12;;;;;;;2.22;0.60;;;20.60;99.90;;;;;;10103332;28;20040;-66
2023/08/04 09:10:03;;;;;;;0.47;0.47;;;20.50;99.90;;;;;;10102245;28;20033;-68
2023/08/04 09:14:55;;;;;;;3.03;1.40;;;20.60;99.90;;;;;;10101737;28;20044;-68
2023/08/04 09:19:46;;;;;;;1.67;0.90;;;20.70;99.90;;;;;;10101303;28;20033;-69
2023/08/04 09:24:37;;;;;;;1.02;0.50;;;20.90;99.90;;;;;;10097632;28;20049;-68
2023/08/04 09:29:27;;;;;;;1.33;0.60;;;21.10;99.90;;;;;;10104813;28;20021;-67
2023/08/04 09:34:18;;;;;;;2.33;0.50;;;21.20;99.90;;;;;;10121442;28;20085;-68
2023/08/04 09:39:12;;;;;;;1.48;0.77;;;21.20;99.90;;;;;;10116549;28;20029;-67
2023/08/04 09:44:10;;;;;;;1.52;0.88;;;21.30;99.90;;;;;;10101036;28;20021;-68
2023/08/04 09:49:01;;;;;;;0.90;0.45;;;21.20;99.90;;;;;;10101021;28;20063;-69
2023/08/04 09:53:54;;;;;;;0.98;0.90;;;21.00;99.90;;;;;;10116810;28;20045;-68
2023/08/04 09:58:47;;;;;;;1.48;0.77;;;20.80;99.90;;;;;;10095334;28;20508;-69
2023/08/04 10:03:40;;;;;;;1.75;0.73;;;20.30;99.90;;;;;;10100219;28;20041;-70
2023/08/04 10:08:33;;;;;;;4.28;0.88;;;19.80;99.90;;;;;;10098565;28;20146;-69
2023/08/04 10:13:31;;;;;;;0.60;0.55;;;19.30;99.90;;;;;;10099287;28;20123;-69
2023/08/04 10:18:23;;;;;;;2.63;1.08;;;18.70;99.90;;;;;;10103429;28;20184;-68
2023/08/04 10:23:14;;;;;;;2.20;0.75;;;18.50;99.90;;;;;;10114608;28;20073;-69
2023/08/04 10:28:04;;;;;;;0.80;0.50;;;18.40;99.90;;;;;;10100272;28;20037;-68
2023/08/04 10:33:10;;;;;;;1.30;0.73;;;18.40;99.90;;;;;;10099166;28;20056;-68
2023/08/04 10:38:02;;;;;;;0.95;0.75;;;18.50;99.90;;;;;;10099374;28;20029;-68
2023/08/04 10:43:03;;;;;;;1.77;1.00;;;18.50;99.90;;;;;;10113288;28;20048;-68
2023/08/04 10:47:54;;;;;;;1.05;0.77;;;18.60;99.90;;;;;;10114135;28;20388;-69
2023/08/04 10:52:45;;;;;;;0.80;0.60;;;18.50;99.90;;;;;;10098075;28;20025;-69
2023/08/04 10:57:37;;;;;;;1.88;0.98;;;18.50;99.90;;;;;;10098290;28;20029;-69
2023/08/04 11:02:28;;;;;;;1.05;0.60;;;18.50;99.90;;;;;;10101910;28;20110;-68
2023/08/04 11:07:21;;;;;;;1.40;1.00;;;18.40;99.90;;;;;;10098045;28;20426;-69
2023/08/04 11:12:13;;;;;;;1.80;0.65;;;18.40;99.90;;;;;;10086213;28;20040;-68
2023/08/04 11:17:17;;;;;;;1.27;0.73;;;18.40;99.90;;;;;;10101812;28;20106;-68
2023/08/04 11:22:11;;;;;;;0.75;0.50;;;18.50;99.90;;;;;;10097451;28;20452;-68
2023/08/04 11:27:01;;;;;;;1.83;0.75;;;18.40;99.90;;;;;;10089201;28;20308;-69
2023/08/04 11:31:53;;;;;;;1.10;0.80;;;18.30;99.90;;;;;;10081683;28;20090;-68
2023/08/04 11:36:45;;;;;;;2.15;0.68;;;18.40;99.90;;;;;;10091218;28;20035;-68
2023/08/04 11:41:36;;;;;;;1.15;0.63;;;18.50;99.90;;;;;;10092392;28;20407;-68
2023/08/04 11:46:27;;;;;;;1.02;0.50;;;18.50;99.90;;;;;;10094082;28;20086;-69
2023/08/04 11:51:18;;;;;;;0.65;0.40;;;18.50;99.90;;;;;;10095456;28;20035;-69
2023/08/04 11:56:09;;;;;;;0.95;0.47;;;18.40;99.90;;;;;;10096355;28;20028;-68
2023/08/04 12:01:00;;;;;;;1.67;1.10;;;18.40;99.90;;;;;;10096464;28;20037;-68
2023/08/04 12:05:51;;;;;;;1.40;1.20;;;18.50;99.90;;;;;;10099224;28;20086;-67
2023/08/04 12:10:42;;;;;;;7.28;0.90;;;18.50;99.90;;;;;;10091041;28;20401;-68
2023/08/04 12:15:52;;;;;;;1.40;0.50;;;18.50;99.90;;;;;;10119917;28;20123;-68
2023/08/04 12:20:43;;;;;;;1.40;0.82;;;18.60;99.90;;;;;;10102470;28;20091;-69
2023/08/04 12:25:33;;;;;;;1.92;0.82;;;18.70;99.90;;;;;;10104734;28;20032;-69
2023/08/04 12:30:24;;;;;;;6.20;1.15;;;18.70;99.90;;;;;;10107089;28;20029;-67
2023/08/04 12:35:14;;;;;;;0.73;0.57;;;18.80;99.90;;;;;;10104380;28;20033;-68
2023/08/04 12:40:06;;;;;;;0.57;0.55;;;18.90;99.90;;;;;;10102083;28;20024;-68
2023/08/04 12:44:56;;;;;;;1.15;0.65;;;19.00;99.90;;;;;;10104244;28;20489;-68
2023/08/04 12:49:47;;;;;;;1.50;0.50;;;19.00;99.90;;;;;;10103547;28;20033;-68
2023/08/04 12:54:37;;;;;;;1.13;0.68;;;19.00;99.90;;;;;;10101972;28;20044;-68
2023/08/04 12:59:29;;;;;;;1.20;0.88;;;19.00;99.90;;;;;;10102815;28;20025;-69
2023/08/04 13:04:20;;;;;;;2.33;0.70;;;19.00;99.90;;;;;;10103706;28;20068;-67
2023/08/04 13:09:10;;;;;;;1.35;0.73;;;19.00;99.90;;;;;;10099354;28;20495;-67
2023/08/04 13:14:01;;;;;;;1.08;0.90;;;19.10;99.90;;;;;;10118155;28;20090;-68
2023/08/04 13:18:52;;;;;;;1.77;0.80;;;19.20;99.90;;;;;;10098567;28;20314;-68
2023/08/04 13:23:43;;;;;;;1.30;0.90;;;19.10;99.90;;;;;;10102465;28;20482;-67
2023/08/04 13:28:33;;;;;;;1.73;0.80;;;19.10;99.90;;;;;;10090925;28;20234;-67
2023/08/04 13:33:24;;;;;;;1.60;0.75;;;19.20;99.90;;;;;;10091474;28;20035;-67
2023/08/04 13:38:15;;;;;;;1.50;0.68;;;19.20;99.90;;;;;;10099232;28;20029;-67
2023/08/04 13:43:05;;;;;;;3.20;0.90;;;19.20;99.90;;;;;;10099653;28;20041;-67
2023/08/04 13:47:56;;;;;;;1.55;1.10;;;19.30;99.90;;;;;;10097057;28;20044;-69
2023/08/04 13:52:46;;;;;;;0.95;0.80;;;19.30;99.90;;;;;;10101581;28;20389;-69
2023/08/04 13:57:37;;;;;;;2.05;1.05;;;19.30;99.90;;;;;;10099273;28;20025;-66
2023/08/04 14:02:28;;;;;;;1.75;1.38;;;19.30;99.90;;;;;;10100234;28;20037;-67
2023/08/04 14:07:18;;;;;;;3.22;1.38;;;19.20;99.90;;;;;;10102000;28;20036;-67
2023/08/04 14:12:09;;;;;;;3.60;2.15;;;19.00;99.90;;;;;;10093252;28;20040;-67
2023/08/04 14:17:00;;;;;;;4.32;1.77;;;18.90;99.90;;;;;;10102839;28;20021;-67
2023/08/04 14:21:50;;;;;;;3.05;1.85;;;18.80;99.90;;;;;;10098935;28;20059;-68
2023/08/04 14:26:41;;;;;;;5.40;2.50;;;18.80;99.90;;;;;;10099403;28;20025;-68
2023/08/04 14:31:31;;;;;;;2.65;1.70;;;18.90;99.90;;;;;;10098984;28;20025;-67
2023/08/04 14:36:22;;;;;;;3.72;2.05;;;19.00;99.90;;;;;;10110157;28;20516;-69
2023/08/04 14:41:13;;;;;;;2.95;2.22;;;19.10;99.90;;;;;;10098878;28;20046;-69
2023/08/04 14:46:09;;;;;;;2.97;1.92;;;19.10;99.90;;;;;;10099188;28;20036;-69
2023/08/04 14:50:59;;;;;;;2.53;1.80;;;19.20;99.90;;;;;;10098745;28;20107;-68
2023/08/04 14:55:50;;;;;;;2.17;1.40;;;19.20;99.90;;;;;;10095407;28;20173;-67
2023/08/04 15:00:40;;;;;;;2.10;1.38;;;19.40;99.90;;;;;;10113148;28;20487;-67
2023/08/04 15:05:32;;;;;;;2.00;1.50;;;19.40;99.90;;;;;;10098700;28;20119;-67
2023/08/04 15:10:23;;;;;;;2.15;1.38;;;19.50;99.90;;;;;;10092557;28;20151;-67
2023/08/04 15:15:13;;;;;;;1.52;1.42;;;19.60;99.90;;;;;;10097314;28;20108;-68
2023/08/04 15:20:07;;;;;;;3.10;1.92;;;19.60;99.90;;;;;;10098994;28;20037;-68
2023/08/04 15:24:58;;;;;;;2.35;1.70;;;19.60;99.90;;;;;;10097526;28;20043;-68
2023/08/04 15:29:51;;;;;;;3.55;1.77;;;19.60;99.90;;;;;;10096925;28;20039;-68
2023/08/04 15:34:42;;;;;;;2.45;2.13;;;19.60;99.90;;;;;;10112444;28;20033;-68
2023/08/04 15:39:33;;;;;;;4.55;1.90;;;19.70;99.90;;;;;;10096562;28;20441;-67
2023/08/04 15:44:23;;;;;;;3.20;1.70;;;19.70;99.90;;;;;;10097335;28;20044;-67
2023/08/04 15:49:14;;;;;;;2.95;1.70;;;19.70;99.90;;;;;;10096783;28;20107;-67
2023/08/04 15:54:05;;;;;;;3.40;2.13;;;19.70;99.90;;;;;;10094969;28;20048;-69
2023/08/04 15:58:55;;;;;;;2.75;2.08;;;19.70;99.90;;;;;;10096672;28;20029;-67
2023/08/04 16:03:47;;;;;;;3.35;2.15;;;19.80;99.90;;;;;;10096878;28;20071;-68
2023/08/04 16:08:38;;;;;;;3.95;2.38;;;19.90;99.90;;;;;;10090770;28;20109;-67
2023/08/04 16:13:29;;;;;;;3.55;2.45;;;20.00;99.90;;;;;;10089101;28;20056;-69
2023/08/04 16:18:19;;;;;;;3.00;2.25;;;20.00;99.90;;;;;;10101837;28;20032;-66
2023/08/04 16:23:10;;;;;;;3.47;1.58;;;20.10;99.90;;;;;;10096259;28;20045;-67
2023/08/04 16:28:01;;;;;;;2.85;1.63;;;20.10;99.90;;;;;;10096305;28;20028;-66
2023/08/04 16:32:51;;;;;;;1.98;1.50;;;20.10;99.90;;;;;;10095448;28;20079;-67
2023/08/04 16:37:42;;;;;;;2.08;1.70;;;20.10;99.90;;;;;;10096942;28;20024;-68
2023/08/04 16:42:32;;;;;;;2.65;2.00;;;20.00;99.90;;;;;;10095740;28;20458;-68
2023/08/04 16:47:23;;;;;;;3.05;1.63;;;20.00;99.90;;;;;;10099750;28;20029;-68
2023/08/04 16:52:14;;;;;;;2.63;1.70;;;20.10;99.90;;;;;;10098315;28;20426;-68
2023/08/04 16:57:04;;;;;;;2.03;1.17;;;20.00;99.90;;;;;;10102576;28;20029;-69
2023/08/04 17:01:55;;;;;;;2.15;1.60;;;20.00;99.90;;;;;;10102479;28;20530;-67
2023/08/04 17:06:46;;;;;;;2.25;1.63;;;19.90;99.90;;;;;;10102492;28;20726;-68
2023/08/04 17:11:36;;;;;;;2.47;1.25;;;19.90;99.90;;;;;;10090365;28;20044;-68
2023/08/04 17:16:27;;;;;;;2.70;1.77;;;19.80;99.90;;;;;;10098934;28;20035;-68
2023/08/04 17:21:17;;;;;;;2.60;1.52;;;19.90;99.90;;;;;;10101413;28;20145;-69
2023/08/04 17:26:08;;;;;;;1.55;1.13;;;19.90;99.90;;;;;;10101041;28;20494;-68
2023/08/04 17:31:03;;;;;;;2.22;1.20;;;20.00;99.90;;;;;;10101475;28;20032;-68
2023/08/04 17:35:54;;;;;;;5.47;1.80;;;20.10;99.90;;;;;;10103592;28;20366;-68
2023/08/04 17:40:45;;;;;;;3.42;2.35;;;20.10;99.90;;;;;;10099987;28;20044;-68
2023/08/04 17:45:36;;;;;;;3.78;2.60;;;20.10;99.90;;;;;;10101555;28;20037;-68
2023/08/04 17:50:26;;;;;;;3.38;2.38;;;20.20;99.90;;;;;;10101151;28;20107;-67
2023/08/04 17:55:17;;;;;;;3.25;1.60;;;20.20;99.90;;;;;;10099029;28;20028;-68
2023/08/04 18:00:08;;;;;;;4.53;1.48;;;20.10;99.90;;;;;;10100083;28;20312;-68
2023/08/04 18:04:58;;;;;;;3.97;1.77;;;20.10;99.90;;;;;;10099406;28;20171;-68
2023/08/04 18:09:49;;;;;;;3.78;2.53;;;20.10;99.90;;;;;;10094327;28;20537;-68
2023/08/04 18:14:40;;;;;;;2.40;1.60;;;20.10;99.90;;;;;;10100062;28;20450;-68
2023/08/04 18:19:30;;;;;;;2.97;1.67;;;20.20;99.90;;;;;;10100365;28;20021;-68
2023/08/04 18:24:22;;;;;;;2.75;2.33;;;20.10;99.90;;;;;;10099659;28;20056;-68
2023/08/04 18:29:13;;;;;;;4.38;2.15;;;20.10;99.90;;;;;;10098853;28;20028;-67
2023/08/04 18:34:04;;;;;;;3.10;1.98;;;19.90;99.90;;;;;;10099237;28;20499;-67
2023/08/04 18:38:56;;;;;;;2.83;2.33;;;19.80;99.90;;;;;;10099228;28;20025;-67
2023/08/04 18:43:46;;;;;;;3.80;2.08;;;19.80;99.90;;;;;;10099348;28;20105;-68
2023/08/04 18:48:37;;;;;;;3.25;2.20;;;19.70;99.90;;;;;;10098537;28;20097;-68
2023/08/04 18:53:28;;;;;;;4.82;3.17;;;19.70;99.90;;;;;;10097698;28;20094;-68
2023/08/04 18:58:18;;;;;;;3.97;2.70;;;19.70;99.90;;;;;;10098206;28;20029;-67
2023/08/04 19:03:09;;;;;;;5.30;2.35;;;19.70;99.90;;;;;;10098441;28;20040;-67
2023/08/04 19:08:00;;;;;;;5.90;2.75;;;19.60;99.90;;;;;;10102877;28;20549;-67
2023/08/04 19:12:50;;;;;;;4.25;2.33;;;19.60;99.90;;;;;;10085508;28;20041;-67
2023/08/04 19:17:41;;;;;;;3.03;1.92;;;19.60;99.90;;;;;;10100665;28;20067;-68
2023/08/04 19:22:32;;;;;;;3.22;2.17;;;19.50;99.90;;;;;;10110657;23;20399;-71
2023/08/04 19:27:23;;;;;;;6.25;3.13;;;19.40;99.90;;;;;;10081121;28;20021;-77
2023/08/04 19:32:13;;;;;;;5.57;2.95;;;19.40;99.90;;;;;;10072230;28;20025;-78
2023/08/04 19:37:04;;;;;;;6.72;3.45;;;19.40;99.90;;;;;;10090823;28;20035;-78
2023/08/04 19:41:55;;;;;;;4.25;2.38;;;19.40;99.90;;;;;;10083178;28;20047;-78
2023/08/04 19:46:46;;;;;;;2.75;2.10;;;19.40;99.90;;;;;;10070193;28;20349;-77
2023/08/04 19:51:37;;;;;;;2.47;1.98;;;19.30;99.90;;;;;;10088527;28;20040;-74
2023/08/04 19:56:28;;;;;;;3.42;2.50;;;19.30;99.90;;;;;;10081334;28;20098;-78
2023/08/04 20:01:18;;;;;;;5.63;3.25;;;19.30;99.90;;;;;;10073117;28;20033;-76
2023/08/04 20:06:09;;;;;;;5.30;4.10;;;19.40;99.90;;;;;;10080552;28;20729;-76
2023/08/04 20:11:05;;;;;;;4.47;2.97;;;19.30;99.90;;;;;;10083103;28;20033;-74
2023/08/04 20:16:16;;;;;;;4.80;2.83;;;19.30;99.90;;;;;;10100365;28;20024;-77
2023/08/04 20:21:07;;;;;;;5.05;3.05;;;19.30;99.90;;;;;;10096270;28;20726;-76
2023/08/04 20:26:06;;;;;;;4.47;3.08;;;19.20;99.90;;;;;;10101996;28;20653;-77
2023/08/04 20:31:02;;;;;;;5.18;2.95;;;19.20;99.90;;;;;;10092004;28;20071;-78
2023/08/04 20:35:59;;;;;;;3.47;2.63;;;19.30;99.90;;;;;;10097254;28;20033;-76
2023/08/04 20:41:04;;;;;;;4.95;2.65;;;19.20;99.90;;;;;;10082059;28;20036;-77
2023/08/04 20:45:55;;;;;;;6.13;3.20;;;19.20;99.90;;;;;;10079120;28;20033;-73
2023/08/04 20:50:46;;;;;;;4.25;2.67;;;19.20;99.90;;;;;;10087099;28;20135;-72
2023/08/04 20:55:37;;;;;;;6.03;2.90;;;19.20;99.90;;;;;;10100303;28;20132;-76
2023/08/04 21:00:28;;;;;;;5.70;2.97;;;19.10;99.90;;;;;;10101409;28;20128;-76
2023/08/04 21:05:18;;;;;;;5.68;2.90;;;19.20;99.90;;;;;;10093874;28;20179;-77
2023/08/04 21:10:09;;;;;;;3.72;2.10;;;19.10;99.90;;;;;;10084393;28;20082;-74
2023/08/04 21:15:03;;;;;;;4.25;2.25;;;19.10;99.90;;;;;;10104894;28;20398;-74
2023/08/04 21:19:54;;;;;;;6.03;2.67;;;19.00;99.90;;;;;;10105014;28;20081;-74
2023/08/04 21:24:45;;;;;;;4.30;2.78;;;19.10;99.90;;;;;;10101963;28;20037;-73
2023/08/04 21:29:35;;;;;;;5.72;2.97;;;19.10;99.90;;;;;;10094500;28;20425;-74
2023/08/04 21:34:26;;;;;;;3.88;3.00;;;19.10;99.90;;;;;;10094087;28;20036;-75
2023/08/04 21:39:17;;;;;;;3.35;2.42;;;19.00;99.90;;;;;;10093904;28;20114;-75
2023/08/04 21:44:07;;;;;;;7.15;2.50;;;19.10;99.90;;;;;;10104534;28;20033;-76
2023/08/04 21:48:58;;;;;;;5.05;2.33;;;19.10;99.90;;;;;;10100881;28;20040;-78
2023/08/04 21:53:49;;;;;;;4.63;1.95;;;19.10;99.90;;;;;;10096051;28;20264;-75
2023/08/04 21:58:43;;;;;;;2.72;1.98;;;19.10;99.90;;;;;;10095979;28;20033;-77
2023/08/04 22:03:33;;;;;;;2.95;2.10;;;19.10;99.90;;;;;;10094605;28;20045;-75
2023/08/04 22:08:24;;;;;;;3.63;2.20;;;19.10;99.90;;;;;;10091429;28;20514;-73
2023/08/04 22:13:15;;;;;;;4.18;2.47;;;19.00;99.90;;;;;;10100037;28;20434;-77
2023/08/04 22:18:06;;;;;;;3.88;2.13;;;19.00;99.90;;;;;;10106147;28;20199;-76
2023/08/04 22:22:56;;;;;;;4.70;2.25;;;19.00;99.90;;;;;;10096637;28;20057;-78
2023/08/04 22:27:47;;;;;;;4.63;2.50;;;19.10;99.90;;;;;;10089768;28;20403;-78
2023/08/04 22:32:38;;;;;;;4.78;2.38;;;19.10;99.90;;;;;;10086194;28;20028;-76
2023/08/04 22:37:28;;;;;;;3.30;2.30;;;19.00;99.90;;;;;;10088884;28;20437;-77
2023/08/04 22:42:19;;;;;;;3.97;2.40;;;19.00;99.90;;;;;;10096381;28;20068;-76
2023/08/04 22:47:10;;;;;;;5.18;2.72;;;19.00;99.90;;;;;;10097588;28;20021;-76
2023/08/04 22:52:00;;;;;;;3.85;2.45;;;19.00;99.90;;;;;;10095146;28;20505;-74
2023/08/04 22:56:51;;;;;;;5.43;2.70;;;19.00;99.90;;;;;;10093421;28;20105;-78
2023/08/04 23:01:44;;;;;;;4.80;2.83;;;18.90;99.90;;;;;;10097037;28;20394;-77
2023/08/04 23:06:35;;;;;;;4.28;2.75;;;18.90;99.90;;;;;;10094913;28;20033;-74
2023/08/04 23:11:31;;;;;;;3.60;2.35;;;19.00;99.90;;;;;;10096502;28;20427;-75
2023/08/04 23:16:22;;;;;;;6.82;2.80;;;18.90;99.90;;;;;;10101080;28;20074;-78
2023/08/04 23:24:53;;;;;;;6.15;2.20;;;18.90;99.90;;;;;;10160205;28;20405;-79
2023/08/04 23:29:44;;;;;;;4.57;2.40;;;18.90;99.90;;;;;;10135024;28;20047;-77
2023/08/04 23:34:34;;;;;;;3.58;2.75;;;18.80;99.90;;;;;;10132527;28;20029;-77
2023/08/04 23:39:25;;;;;;;4.47;2.35;;;18.80;99.90;;;;;;10130570;28;20329;-78
2023/08/04 23:44:16;;;;;;;3.85;2.30;;;18.80;99.90;;;;;;10131059;28;20037;-78
2023/08/04 23:49:07;;;;;;;3.35;2.60;;;18.90;99.90;;;;;;10130950;28;20496;-76
2023/08/04 23:54:02;;;;;;;3.95;2.50;;;18.70;99.90;;;;;;10129326;28;20120;-77
2023/08/04 23:58:53;;;;;;;;;;;18.70;99.90;;;;;;10130580;28;20025;-75
